Dunwoody, GA (30338)

1:16 AM EDT op 25 mei 2015 (GMT -0400)
Wyntercreek/Meadowcreek | | Change Station
CLOSE
Current Station
Persoonlijk weerstation
Location: Dunwoody, GA
Geometrische hoogte: 1072 ft
Nabije weerstations

Hoogte 1072 ft 33.95 °N, 84.33 °W | Updated 0 second ago

Helder
Helder
68.2 °F
Voelt als 68.2 °F
N
3.0
Wind Variabel Wind van oost
Gusts 5.0 mijl/u

Vandaag
Hoog -- | Laag -- °F
--% Kans op neerslag
Gisteren
Hoog -- | Laag -- °F
Precip. -- inches
6:30 AM 8:38 PM
Wassende halvemaan, 45% visible
Druk 30.22 inches
Zicht 10.0 mijlen
Wolken Helder
Dauwpunt 38 °F
Vochtigheid 39%
Neerslag -999.00 inches
Dikte sneeuw Niet beschikbaar.
UV 0 van de 12
Pollen 5.70 van de 12
Luchtkwaliteit Niet beschikbaar.
Flu Activity Sporadic
METAR KPDK 250453Z AUTO 13005KT 10SM CLR 21/14 A3026 RMK AO2 SLP234 T02110139 402890161

More Conditions Fewer Conditions

Druk 30.22 inches
Zicht 10.0 mijlen
Wolken Helder
Dauwpunt 38 °F
Vochtigheid 39%
Neerslag -999.00 inches
Dikte sneeuw Niet beschikbaar.
UV 0 van de 12
Pollen 5.70 van de 12
Luchtkwaliteit Niet beschikbaar.
Flu Activity Sporadic
METAR KPDK 250453Z AUTO 13005KT 10SM CLR 21/14 A3026 RMK AO2 SLP234 T02110139 402890161

More Conditions Fewer Conditions

10-Day Weather Forecast

Almanac

Astronomie

May. 25, 2015 Opkomst Ondergang
Werkelijke tijd
Burgerlijke schemering
Nautische schemering
Astronomische schemering
Maan
Golflengte van het zichtbare licht
Daglengte
Tomorrow will be .
, % of the Moon is Illuminated

Extremen vandaag

State Highs State Lows

Community

WunderPhotos

Upload Photos

1,823,956 foto’s ge-upload!

WunderBlogs® & News

Nearby

Luchtkwaliteit

  Luchtkwaliteit LK-index Verontreinigende stof
Not available.

Dikte sneeuw

Station Depth Geometrische hoogte

Aardbevingen

Stad Distance Mag. Time & Date
Minimum magnitude displayed is 2.5.

Watertemperatuur langs de kust

Plaats Temperatuur

Stations

Nabije weerstations

Locatie station Temp. Gevoelstemperatuur Dauwpunt Vochtigheid Wind Precip. Hoogte Geactualiseerd Type